Connersville, Indiana
Current Conditions -  °F | °C
As of 4:15 PM on Saturday 22 Nov 2014 (Local Time) from KI67 Reporting Station
Overcast Overcast  
Wind Chill: 59°   Ceiling: 10000
Heat Index: 59°   Visibility: 10mi
Dew Point: 36°   Wind: 10mph
Humidity: 42%   Direction: 200°SSW
Pressure: 30.09"   Gusts: NA
Location:  39.64°N, 85.14°W
Report Text: KI67 222115Z AUTO 20009KT 10SM OVC100 15/02 A3009 RMK AO1
Loading
Personal Weather Stations






























Interactive Weather Map New forecast layout! Learn more

10-Day Weather Forecast

Advertisements
Track Severe Weather on mobile